Time;durP1;ratioP1;P1;durP2;ratioP2;P2;SDS_P1;SDS_P2;PMS_P1;PMS_P2;Temp;Humidity;BMP_temperature;BMP_pressure;BME280_temperature;BME280_humidity;BME280_pressure;Samples;Min_cycle;Max_cycle;Signal;HPM_P1;HPM_P2
2021/12/09 00:01:22;;;;;;;66.97;42.33;;;7.20;75.00;;;;;;5009699;28;20208;-76
2021/12/09 00:03:53;;;;;;;52.70;44.83;;;7.10;75.00;;;;;;5019709;28;20244;-74
2021/12/09 00:06:24;;;;;;;73.93;46.10;;;7.20;75.10;;;;;;5009459;28;20300;-75
2021/12/09 00:08:52;;;;;;;74.23;44.57;;;7.10;75.00;;;;;;5009298;28;20238;-74
2021/12/09 00:11:19;;;;;;;70.90;42.93;;;7.10;75.00;;;;;;5017942;28;20232;-74
2021/12/09 00:13:46;;;;;;;41.90;36.93;;;7.10;75.00;;;;;;5026109;28;20236;-75
2021/12/09 00:16:13;;;;;;;55.77;40.90;;;7.10;74.90;;;;;;5028957;28;20224;-75
2021/12/09 00:18:40;;;;;;;54.40;38.97;;;7.10;75.00;;;;;;5019442;28;20239;-76
2021/12/09 00:21:09;;;;;;;44.37;40.30;;;7.10;75.10;;;;;;5028888;28;20293;-79
2021/12/09 00:23:36;;;;;;;44.20;39.70;;;7.10;75.30;;;;;;5026916;28;20232;-75
2021/12/09 00:26:03;;;;;;;50.83;40.60;;;7.10;75.30;;;;;;5012089;28;20210;-76
2021/12/09 00:28:30;;;;;;;45.50;40.87;;;7.10;75.30;;;;;;5021968;28;20716;-74
2021/12/09 00:30:57;;;;;;;45.87;38.60;;;7.10;75.40;;;;;;5023722;28;20298;-74
2021/12/09 00:33:24;;;;;;;44.90;40.83;;;7.10;75.30;;;;;;5027731;28;20247;-74
2021/12/09 00:35:56;;;;;;;52.07;42.20;;;7.00;75.20;;;;;;5028587;28;20638;-75
2021/12/09 00:38:34;;;;;;;67.87;39.17;;;7.10;75.30;;;;;;5019756;28;20218;-75
2021/12/09 00:41:04;;;;;;;45.17;39.23;;;7.10;75.30;;;;;;5021094;28;20202;-75
2021/12/09 00:43:31;;;;;;;40.20;35.33;;;7.10;75.30;;;;;;5022989;28;20315;-77
2021/12/09 00:45:58;;;;;;;48.30;39.73;;;7.10;75.30;;;;;;5028423;28;20232;-78
2021/12/09 00:48:25;;;;;;;43.93;39.03;;;7.10;75.30;;;;;;5027319;28;20202;-75
2021/12/09 00:50:53;;;;;;;43.83;39.30;;;7.10;75.30;;;;;;5030366;28;20236;-74
2021/12/09 00:53:20;;;;;;;53.47;46.63;;;7.10;75.30;;;;;;5013122;28;20233;-75
2021/12/09 00:55:49;;;;;;;42.53;38.23;;;7.10;75.30;;;;;;5028577;28;20336;-75
2021/12/09 00:58:16;;;;;;;53.70;41.10;;;7.10;75.30;;;;;;5026314;28;20306;-76
2021/12/09 01:00:43;;;;;;;49.73;45.67;;;7.10;75.30;;;;;;5013406;28;20292;-75
2021/12/09 01:03:10;;;;;;;52.10;47.03;;;7.20;75.40;;;;;;5026206;28;20285;-74
2021/12/09 01:05:37;;;;;;;51.57;43.80;;;7.10;75.30;;;;;;5027515;28;20307;-76
2021/12/09 01:08:06;;;;;;;52.43;41.40;;;7.10;75.40;;;;;;5026383;28;20285;-74
2021/12/09 01:10:33;;;;;;;51.80;44.93;;;7.10;75.30;;;;;;5027868;28;20843;-75
2021/12/09 01:13:02;;;;;;;52.27;44.40;;;7.10;75.30;;;;;;5026581;28;20234;-77
2021/12/09 01:15:29;;;;;;;55.80;44.80;;;7.10;75.30;;;;;;5022894;28;20253;-74
2021/12/09 01:17:56;;;;;;;49.27;44.07;;;7.10;75.30;;;;;;5022787;28;20289;-77
2021/12/09 01:20:26;;;;;;;51.23;46.03;;;7.20;75.50;;;;;;5027844;28;20795;-75
2021/12/09 01:22:54;;;;;;;46.47;41.97;;;7.20;75.50;;;;;;5008766;28;20241;-75
2021/12/09 01:25:22;;;;;;;53.70;39.80;;;7.10;75.30;;;;;;5008997;28;20225;-74
2021/12/09 01:27:51;;;;;;;54.17;49.60;;;7.10;75.20;;;;;;5027265;28;20292;-76
2021/12/09 01:30:22;;;;;;;50.07;44.93;;;7.20;75.30;;;;;;5028400;28;20214;-80
2021/12/09 01:32:54;;;;;;;51.30;41.07;;;7.10;75.30;;;;;;5028240;28;20258;-74
2021/12/09 01:35:23;;;;;;;50.80;46.13;;;7.10;75.30;;;;;;5029905;28;20651;-75
2021/12/09 01:37:54;;;;;;;48.67;43.30;;;7.10;75.30;;;;;;5026122;28;20203;-75
2021/12/09 01:40:23;;;;;;;52.47;47.03;;;7.10;75.30;;;;;;5028407;28;20201;-75
2021/12/09 01:42:50;;;;;;;53.00;47.40;;;7.00;75.20;;;;;;5028070;28;20252;-75
2021/12/09 01:45:17;;;;;;;63.20;46.13;;;7.00;75.20;;;;;;5026866;28;20331;-75
2021/12/09 01:47:46;;;;;;;54.30;45.80;;;7.10;75.30;;;;;;5027544;28;20235;-76
2021/12/09 01:50:14;;;;;;;50.43;45.43;;;7.00;75.20;;;;;;5027293;28;20291;-75
2021/12/09 01:52:41;;;;;;;58.47;48.13;;;7.00;75.20;;;;;;5027710;28;20216;-81
2021/12/09 01:55:10;;;;;;;49.63;45.83;;;7.00;75.20;;;;;;5027413;28;20267;-77
2021/12/09 01:57:37;;;;;;;51.23;46.00;;;7.00;75.20;;;;;;5027225;28;20318;-75
2021/12/09 02:00:07;;;;;;;45.87;41.20;;;7.00;75.20;;;;;;5026995;28;20194;-75
2021/12/09 02:02:33;;;;;;;48.07;40.27;;;7.00;75.20;;;;;;5027740;28;20287;-75
2021/12/09 02:05:02;;;;;;;46.07;41.87;;;6.90;75.20;;;;;;5027014;28;20339;-75
2021/12/09 02:07:29;;;;;;;53.43;41.87;;;6.90;75.10;;;;;;5027807;28;20236;-75
2021/12/09 02:09:56;;;;;;;48.87;44.90;;;6.90;75.10;;;;;;5027772;28;20900;-81
2021/12/09 02:12:23;;;;;;;44.37;39.87;;;6.90;75.20;;;;;;5026918;28;20606;-82
2021/12/09 02:14:52;;;;;;;48.63;43.50;;;6.90;75.20;;;;;;5027859;28;20267;-76
2021/12/09 02:17:19;;;;;;;46.37;40.10;;;6.90;75.20;;;;;;5027611;28;20264;-74
2021/12/09 02:19:48;;;;;;;45.47;41.27;;;6.90;75.20;;;;;;5029655;28;20202;-75
2021/12/09 02:22:16;;;;;;;48.43;43.83;;;6.90;75.30;;;;;;5030222;28;20201;-74
2021/12/09 02:24:43;;;;;;;49.93;44.23;;;6.90;75.30;;;;;;5027171;28;20258;-79
2021/12/09 02:27:11;;;;;;;49.10;44.40;;;6.90;75.40;;;;;;5027640;28;20292;-74
2021/12/09 02:29:39;;;;;;;54.23;42.17;;;6.90;75.60;;;;;;5028325;28;20239;-75
2021/12/09 02:32:07;;;;;;;54.10;44.00;;;6.90;75.60;;;;;;5030859;28;20211;-77
2021/12/09 02:34:34;;;;;;;57.07;50.87;;;6.90;75.70;;;;;;5031402;28;20319;-75
2021/12/09 02:37:03;;;;;;;51.43;42.80;;;6.90;75.70;;;;;;5031984;28;20304;-75
2021/12/09 02:39:31;;;;;;;50.90;45.40;;;6.90;75.70;;;;;;5030350;28;20296;-75
2021/12/09 02:41:58;;;;;;;51.63;46.27;;;6.90;75.80;;;;;;5030574;28;20297;-75
2021/12/09 02:44:27;;;;;;;54.53;48.97;;;6.90;75.90;;;;;;5030480;28;20245;-75
2021/12/09 02:46:55;;;;;;;49.50;44.70;;;6.90;75.90;;;;;;5030295;28;20232;-78
2021/12/09 02:49:27;;;;;;;58.07;52.37;;;6.90;75.90;;;;;;5031085;28;20690;-75
2021/12/09 02:51:56;;;;;;;59.23;53.70;;;6.90;76.00;;;;;;5030991;28;20217;-74
2021/12/09 02:54:24;;;;;;;48.33;43.93;;;6.90;76.30;;;;;;5031530;28;20317;-74
2021/12/09 02:56:56;;;;;;;47.03;42.57;;;6.90;76.20;;;;;;5031139;28;20629;-75
2021/12/09 02:59:23;;;;;;;42.47;38.00;;;6.90;76.40;;;;;;5031473;28;20235;-75
2021/12/09 03:01:57;;;;;;;48.87;43.70;;;7.00;76.80;;;;;;5029894;28;20296;-75
2021/12/09 03:04:25;;;;;;;53.77;39.40;;;6.90;76.80;;;;;;5030119;28;20699;-74
2021/12/09 03:06:54;;;;;;;55.90;50.73;;;7.00;76.90;;;;;;5030948;28;20251;-74
2021/12/09 03:09:21;;;;;;;51.90;43.13;;;7.00;77.10;;;;;;5030493;28;20205;-75
2021/12/09 03:11:55;;;;;;;53.07;46.20;;;7.00;77.10;;;;;;5031131;28;20228;-74
2021/12/09 03:14:24;;;;;;;46.07;38.30;;;7.00;77.10;;;;;;5030512;28;20270;-76
2021/12/09 03:16:52;;;;;;;39.50;35.37;;;7.00;77.10;;;;;;5030674;28;20291;-76
2021/12/09 03:19:19;;;;;;;47.57;42.47;;;7.00;77.10;;;;;;5030683;28;20239;-75
2021/12/09 03:21:47;;;;;;;47.43;42.83;;;7.10;77.20;;;;;;5030711;28;20232;-73
2021/12/09 03:24:18;;;;;;;46.53;42.43;;;7.10;77.20;;;;;;5030624;28;20229;-74
2021/12/09 03:26:49;;;;;;;54.33;39.23;;;7.10;77.40;;;;;;5027844;28;20284;-74
2021/12/09 03:29:19;;;;;;;48.90;44.10;;;7.10;77.50;;;;;;5029704;28;20296;-76
2021/12/09 03:31:50;;;;;;;46.03;41.27;;;7.10;77.70;;;;;;5029897;28;20202;-75
2021/12/09 03:34:18;;;;;;;51.53;43.30;;;7.20;78.10;;;;;;5030182;28;20637;-73
2021/12/09 03:36:47;;;;;;;48.40;44.07;;;7.10;78.00;;;;;;5029523;28;20667;-77
2021/12/09 03:39:18;;;;;;;45.20;40.63;;;7.10;77.80;;;;;;5029806;28;20689;-74
2021/12/09 03:41:46;;;;;;;43.77;39.20;;;7.20;78.10;;;;;;5028757;28;20603;-79
2021/12/09 03:44:14;;;;;;;45.27;39.67;;;7.20;77.80;;;;;;5029529;28;20297;-76
2021/12/09 03:46:41;;;;;;;54.03;46.80;;;7.20;77.70;;;;;;5029609;28;20273;-74
2021/12/09 03:49:09;;;;;;;45.37;40.77;;;7.30;77.70;;;;;;5030734;28;20296;-77
2021/12/09 03:51:37;;;;;;;41.50;37.03;;;7.30;77.80;;;;;;5032989;28;20211;-75
2021/12/09 03:54:06;;;;;;;48.47;43.93;;;7.30;77.80;;;;;;5035885;28;20639;-76
2021/12/09 03:56:34;;;;;;;42.13;37.97;;;7.30;77.80;;;;;;5031937;28;20356;-74
2021/12/09 03:59:01;;;;;;;47.80;43.27;;;7.30;77.90;;;;;;5030381;28;20229;-74
2021/12/09 04:01:28;;;;;;;50.53;42.50;;;7.30;77.70;;;;;;5028995;28;20234;-76
2021/12/09 04:03:56;;;;;;;44.90;40.57;;;7.30;77.80;;;;;;5026458;28;20348;-79
2021/12/09 04:06:24;;;;;;;48.70;44.53;;;7.30;77.80;;;;;;5029415;28;20231;-75
2021/12/09 04:08:51;;;;;;;48.20;39.60;;;7.30;78.00;;;;;;5029881;28;20205;-75
2021/12/09 04:11:18;;;;;;;40.33;36.47;;;7.40;77.90;;;;;;5029790;28;20285;-75
2021/12/09 04:13:46;;;;;;;45.40;41.17;;;7.30;77.80;;;;;;5029526;28;20333;-74
2021/12/09 04:16:15;;;;;;;46.90;37.57;;;7.40;77.90;;;;;;5029069;28;20230;-75
2021/12/09 04:18:44;;;;;;;42.53;38.30;;;7.30;78.20;;;;;;5029531;28;20296;-75
2021/12/09 04:21:12;;;;;;;46.23;41.70;;;7.30;78.20;;;;;;5029822;28;20200;-75
2021/12/09 04:23:40;;;;;;;45.13;40.20;;;7.30;78.20;;;;;;5029432;28;20216;-76
2021/12/09 04:26:08;;;;;;;48.23;39.27;;;7.30;78.20;;;;;;5028971;28;20317;-75
2021/12/09 04:28:36;;;;;;;50.87;41.77;;;7.30;78.20;;;;;;5029012;28;20281;-74
2021/12/09 04:31:03;;;;;;;46.10;40.37;;;7.30;78.30;;;;;;5027688;28;20283;-76
2021/12/09 04:33:30;;;;;;;47.37;43.17;;;7.30;78.20;;;;;;5028691;28;20252;-74
2021/12/09 04:35:58;;;;;;;47.27;43.13;;;7.30;78.50;;;;;;5029082;28;20229;-75
2021/12/09 04:38:25;;;;;;;44.33;38.90;;;7.30;78.20;;;;;;5028994;28;20244;-77
2021/12/09 04:40:53;;;;;;;46.53;42.57;;;7.30;78.40;;;;;;5029046;28;20648;-75
2021/12/09 04:43:20;;;;;;;57.27;40.40;;;7.30;78.40;;;;;;5029379;28;20226;-74
2021/12/09 04:45:47;;;;;;;44.80;40.73;;;7.40;78.30;;;;;;5028734;28;21015;-80
2021/12/09 04:48:14;;;;;;;47.27;42.83;;;7.40;78.70;;;;;;5029081;28;20211;-75
2021/12/09 04:50:42;;;;;;;43.07;37.07;;;7.40;78.50;;;;;;5028652;28;20266;-75
2021/12/09 04:53:10;;;;;;;46.17;40.83;;;7.40;78.50;;;;;;5028566;28;20204;-75
2021/12/09 04:55:38;;;;;;;52.23;43.17;;;7.40;78.40;;;;;;5028118;28;20314;-79
2021/12/09 04:58:07;;;;;;;48.60;43.77;;;7.40;78.90;;;;;;5026326;28;20269;-75
2021/12/09 05:00:38;;;;;;;43.20;38.63;;;7.40;78.80;;;;;;5027863;28;20207;-76
2021/12/09 05:03:08;;;;;;;45.63;40.90;;;7.40;78.60;;;;;;5028604;28;20351;-75
2021/12/09 05:05:39;;;;;;;55.27;50.73;;;7.40;78.70;;;;;;5028569;28;20656;-77
2021/12/09 05:08:08;;;;;;;42.13;38.40;;;7.40;78.90;;;;;;5028766;28;20240;-75
2021/12/09 05:10:50;;;;;;;44.47;39.43;;;7.40;78.80;;;;;;5033327;28;20255;-75
2021/12/09 05:13:25;;;;;;;81.70;41.37;;;7.40;78.80;;;;;;5036664;22;20289;-75
2021/12/09 05:15:53;;;;;;;43.87;39.63;;;7.50;78.80;;;;;;4988227;28;20272;-77
2021/12/09 05:18:21;;;;;;;42.90;38.53;;;7.50;78.80;;;;;;4989599;28;20235;-81
2021/12/09 05:20:48;;;;;;;44.80;40.47;;;7.50;78.60;;;;;;4988748;28;20719;-77
2021/12/09 05:23:17;;;;;;;48.90;38.60;;;7.50;78.60;;;;;;4989118;28;20648;-81
2021/12/09 05:25:44;;;;;;;44.27;39.83;;;7.50;78.50;;;;;;4988942;28;20239;-75
2021/12/09 05:28:15;;;;;;;49.60;43.00;;;7.50;78.40;;;;;;4988839;28;20294;-81
2021/12/09 05:33:25;;;;;;;42.07;37.93;;;7.50;78.40;;;;;;4988929;28;20199;-77
2021/12/09 05:35:52;;;;;;;44.83;40.47;;;7.50;78.40;;;;;;4988832;28;20251;-80
2021/12/09 05:38:19;;;;;;;40.27;36.23;;;7.50;78.40;;;;;;4988839;28;20213;-80
2021/12/09 05:40:46;;;;;;;46.10;41.57;;;7.60;78.50;;;;;;4988594;28;20209;-78
2021/12/09 05:43:14;;;;;;;44.27;39.87;;;7.60;78.50;;;;;;4997179;23;20202;31
2021/12/09 05:45:43;;;;;;;40.63;36.37;;;7.60;78.50;;;;;;4986928;28;20641;-77
2021/12/09 05:48:11;;;;;;;45.67;40.90;;;7.60;78.50;;;;;;4989082;28;20338;-76
2021/12/09 05:50:38;;;;;;;43.27;38.67;;;7.60;78.50;;;;;;4988550;28;20638;-76
2021/12/09 05:53:05;;;;;;;45.27;40.50;;;7.60;78.50;;;;;;4985835;28;20543;-75
2021/12/09 05:55:33;;;;;;;54.93;39.80;;;7.60;78.40;;;;;;4988203;28;21085;-76
2021/12/09 05:58:00;;;;;;;36.93;33.50;;;7.60;78.30;;;;;;4988535;28;20294;-76
2021/12/09 06:00:27;;;;;;;51.07;39.50;;;7.60;78.30;;;;;;4987422;28;20309;-79
2021/12/09 06:02:56;;;;;;;40.90;36.57;;;7.60;78.40;;;;;;4987622;28;20763;-83
2021/12/09 06:05:24;;;;;;;41.57;34.80;;;7.70;78.30;;;;;;4990602;28;20315;-76
2021/12/09 06:07:50;;;;;;;49.00;42.87;;;7.70;78.30;;;;;;4992799;28;20261;-75
2021/12/09 06:10:17;;;;;;;39.40;35.47;;;7.70;78.20;;;;;;4992006;28;20666;-77
2021/12/09 06:12:44;;;;;;;45.43;40.00;;;7.70;78.20;;;;;;4992507;28;20247;-78
2021/12/09 06:15:11;;;;;;;43.47;39.23;;;7.70;78.10;;;;;;4992108;28;20262;-83
2021/12/09 06:17:38;;;;;;;39.60;34.47;;;7.70;78.10;;;;;;4996939;28;20253;-76
2021/12/09 06:20:08;;;;;;;40.43;36.37;;;7.70;78.40;;;;;;5007860;28;20233;-79
2021/12/09 06:22:35;;;;;;;40.33;35.77;;;7.70;78.20;;;;;;4995820;28;20285;-80
2021/12/09 06:25:02;;;;;;;42.40;38.67;;;7.70;78.30;;;;;;4992680;28;20246;-76
2021/12/09 06:27:30;;;;;;;40.20;36.23;;;7.70;78.20;;;;;;4992687;28;20294;-80
2021/12/09 06:29:57;;;;;;;42.23;37.90;;;7.70;78.30;;;;;;4991365;28;20247;-82
2021/12/09 06:32:26;;;;;;;62.07;40.87;;;7.70;78.40;;;;;;4990880;28;20194;-84
2021/12/09 06:34:54;;;;;;;48.33;37.70;;;7.80;78.50;;;;;;4991209;28;20234;-77
2021/12/09 06:37:22;;;;;;;49.70;39.73;;;7.70;78.50;;;;;;4991318;28;20320;-82
2021/12/09 06:39:49;;;;;;;43.00;38.90;;;7.70;78.50;;;;;;4991695;28;20247;-79
2021/12/09 06:42:17;;;;;;;55.57;39.13;;;7.80;78.50;;;;;;4991399;28;20279;-78
2021/12/09 06:44:45;;;;;;;54.33;37.27;;;7.80;78.70;;;;;;4991297;28;20267;-82
2021/12/09 06:47:12;;;;;;;39.23;34.93;;;7.80;78.70;;;;;;4988620;28;20717;-78
2021/12/09 06:49:39;;;;;;;49.87;39.83;;;7.80;78.70;;;;;;4991558;28;20621;-79
2021/12/09 06:52:06;;;;;;;35.90;32.67;;;7.80;78.60;;;;;;4991491;28;20892;-77
2021/12/09 06:54:35;;;;;;;39.77;33.73;;;7.80;78.50;;;;;;5029134;23;20328;-80
2021/12/09 06:57:02;;;;;;;39.60;32.47;;;7.80;78.50;;;;;;4992770;28;20361;-77
2021/12/09 06:59:29;;;;;;;41.80;37.43;;;7.80;78.50;;;;;;4992181;28;20225;-77
2021/12/09 07:01:55;;;;;;;45.73;41.23;;;7.80;78.60;;;;;;5011119;28;20294;-76
2021/12/09 07:04:22;;;;;;;50.73;40.60;;;7.90;78.80;;;;;;5008727;28;20303;-85
2021/12/09 07:06:50;;;;;;;41.97;37.93;;;7.90;78.80;;;;;;4991324;28;20220;-76
2021/12/09 07:09:17;;;;;;;65.23;40.57;;;7.80;78.70;;;;;;4990635;28;20736;-76
2021/12/09 07:11:50;;;;;;;40.40;34.80;;;7.90;78.80;;;;;;4990628;28;20755;-82
2021/12/09 07:14:17;;;;;;;42.93;38.70;;;7.90;78.80;;;;;;4990312;28;20336;-79
2021/12/09 07:16:44;;;;;;;45.60;38.97;;;7.90;78.80;;;;;;4970752;28;20982;-83
2021/12/09 07:19:11;;;;;;;44.53;35.87;;;7.90;78.80;;;;;;4984604;28;20217;-78
2021/12/09 07:21:39;;;;;;;43.83;36.67;;;7.90;78.80;;;;;;4990366;28;20205;-83
2021/12/09 07:24:06;;;;;;;58.37;39.40;;;7.90;78.80;;;;;;4988451;28;20262;-76
2021/12/09 07:26:33;;;;;;;39.63;35.47;;;7.90;78.80;;;;;;4991353;28;20194;-75
2021/12/09 07:29:03;;;;;;;46.57;36.20;;;8.00;78.90;;;;;;4986399;28;21041;-87
2021/12/09 07:31:30;;;;;;;48.40;38.47;;;7.90;78.80;;;;;;4990730;28;20288;-75
2021/12/09 07:33:57;;;;;;;39.57;35.43;;;8.00;78.90;;;;;;4990808;28;20304;-74
2021/12/09 07:36:25;;;;;;;52.23;34.70;;;7.90;78.80;;;;;;4990686;28;20287;-75
2021/12/09 07:38:52;;;;;;;93.40;38.87;;;7.90;78.80;;;;;;4989450;28;21042;-74
2021/12/09 07:41:20;;;;;;;46.83;39.00;;;7.90;79.00;;;;;;4990896;28;20209;-74
2021/12/09 07:44:24;;;;;;;87.50;37.00;;;7.90;78.90;;;;;;5087082;23;20717;-73
2021/12/09 07:46:52;;;;;;;49.27;35.40;;;7.90;79.10;;;;;;5028780;28;20848;-74
2021/12/09 07:49:19;;;;;;;40.70;35.50;;;7.90;78.90;;;;;;5029796;28;20222;-74
2021/12/09 07:51:46;;;;;;;38.70;33.53;;;7.90;78.80;;;;;;5030065;28;20210;-74
2021/12/09 07:54:14;;;;;;;41.60;37.10;;;8.00;78.90;;;;;;5030087;28;20310;-74
2021/12/09 07:56:40;;;;;;;36.87;29.83;;;8.00;79.00;;;;;;5030097;28;20671;-75
2021/12/09 07:59:08;;;;;;;41.60;37.53;;;8.00;78.90;;;;;;5030249;28;20246;-75
2021/12/09 08:01:36;;;;;;;43.60;34.67;;;8.00;79.20;;;;;;5030185;28;20248;-74
2021/12/09 08:06:39;;;;;;;37.60;30.73;;;8.00;79.20;;;;;;4901946;26;20222;-75
2021/12/09 08:09:08;;;;;;;61.93;34.43;;;8.00;79.10;;;;;;5010160;28;20238;-75
2021/12/09 08:11:36;;;;;;;49.33;36.80;;;8.00;79.10;;;;;;5009798;28;20231;-74
2021/12/09 08:14:04;;;;;;;43.07;38.20;;;8.00;79.20;;;;;;5009943;28;20224;-74
2021/12/09 08:16:33;;;;;;;50.83;35.37;;;8.00;79.10;;;;;;5009420;28;20244;-75
2021/12/09 08:19:02;;;;;;;49.03;37.70;;;8.00;79.40;;;;;;5009204;28;20204;-76
2021/12/09 08:21:31;;;;;;;37.70;34.10;;;8.00;79.30;;;;;;5009743;28;20212;-76
2021/12/09 08:23:58;;;;;;;39.17;34.40;;;8.00;79.30;;;;;;5009765;28;20698;-75
2021/12/09 08:26:25;;;;;;;41.23;35.70;;;8.00;79.50;;;;;;5010044;28;20309;-74
2021/12/09 08:28:53;;;;;;;45.70;34.53;;;7.90;79.30;;;;;;5009270;28;20246;-76
2021/12/09 08:31:20;;;;;;;39.73;32.10;;;7.90;79.60;;;;;;5005662;28;20741;-75
2021/12/09 08:33:47;;;;;;;36.37;31.80;;;7.90;79.60;;;;;;5005239;28;20268;-75
2021/12/09 08:36:16;;;;;;;42.40;36.77;;;7.90;79.50;;;;;;5009087;28;20210;-75
2021/12/09 08:38:43;;;;;;;41.73;36.53;;;8.00;79.70;;;;;;5009700;28;20285;-75
2021/12/09 08:41:10;;;;;;;47.97;39.77;;;8.00;79.60;;;;;;5009489;28;20288;-76
2021/12/09 08:43:37;;;;;;;48.63;37.37;;;7.90;79.50;;;;;;5009271;28;20924;-80
2021/12/09 08:46:04;;;;;;;40.30;35.97;;;7.90;79.70;;;;;;5009472;28;20210;-74
2021/12/09 08:48:31;;;;;;;48.97;34.90;;;7.90;79.70;;;;;;5009142;28;20302;-75
2021/12/09 08:50:58;;;;;;;69.90;40.13;;;7.90;79.60;;;;;;5007552;28;20210;-74
2021/12/09 08:53:27;;;;;;;55.10;36.37;;;8.00;79.80;;;;;;5007891;28;20208;-75
2021/12/09 08:55:54;;;;;;;41.43;36.80;;;7.90;79.60;;;;;;5009428;28;20205;-79
2021/12/09 08:58:23;;;;;;;54.40;39.03;;;7.90;79.90;;;;;;5008735;28;20337;-75
2021/12/09 09:00:53;;;;;;;42.40;38.33;;;7.90;79.70;;;;;;5008502;28;20241;-74
2021/12/09 09:03:20;;;;;;;43.03;34.40;;;7.90;79.70;;;;;;5008405;28;20281;-74
2021/12/09 09:05:47;;;;;;;44.53;40.07;;;7.90;79.60;;;;;;5009008;28;20314;-75
2021/12/09 09:08:14;;;;;;;45.57;36.93;;;7.90;79.80;;;;;;5008992;28;20710;-74
2021/12/09 09:10:44;;;;;;;50.53;37.80;;;7.90;79.80;;;;;;5004514;28;20297;-76
2021/12/09 09:15:53;;;;;;;40.93;36.40;;;8.00;79.90;;;;;;5105930;27;20550;-74
2021/12/09 09:18:21;;;;;;;44.20;38.03;;;7.90;79.80;;;;;;5102313;28;20205;-74
2021/12/09 09:20:49;;;;;;;40.77;36.37;;;8.00;80.10;;;;;;5106164;28;20296;-74
2021/12/09 09:23:19;;;;;;;52.53;34.73;;;8.00;80.20;;;;;;5105779;28;20205;-75
2021/12/09 09:25:46;;;;;;;50.73;38.97;;;8.00;80.20;;;;;;5105662;28;20724;-73
2021/12/09 09:28:13;;;;;;;43.43;36.07;;;8.00;80.30;;;;;;5106155;28;20235;-74
2021/12/09 09:30:45;;;;;;;46.03;38.67;;;8.00;80.20;;;;;;5105790;28;20228;-74
2021/12/09 09:33:15;;;;;;;44.70;39.53;;;8.00;80.10;;;;;;5102103;28;20195;-74
2021/12/09 09:35:43;;;;;;;43.77;39.30;;;8.10;80.20;;;;;;5092071;28;20317;-75
2021/12/09 09:38:11;;;;;;;44.33;34.17;;;8.10;80.30;;;;;;5084881;28;20294;-74
2021/12/09 09:40:46;;;;;;;51.07;34.00;;;8.10;81.00;;;;;;5084706;28;20746;-75
2021/12/09 09:43:27;;;;;;;39.80;34.33;;;8.10;80.20;;;;;;5086502;28;20197;-75
2021/12/09 09:45:55;;;;;;;43.47;39.00;;;8.10;80.20;;;;;;5085666;28;20269;-74
2021/12/09 09:48:23;;;;;;;56.03;34.93;;;8.10;80.20;;;;;;5084318;28;20206;-76
2021/12/09 09:50:51;;;;;;;136.00;41.77;;;8.20;80.30;;;;;;5171028;22;20293;-75
2021/12/09 09:53:18;;;;;;;64.63;31.13;;;8.20;80.30;;;;;;5043781;28;20199;-74
2021/12/09 09:55:47;;;;;;;56.90;40.20;;;8.20;80.20;;;;;;5044005;28;20217;-75
2021/12/09 09:58:14;;;;;;;42.00;37.97;;;8.20;80.20;;;;;;5044119;28;20859;-74
2021/12/09 10:00:41;;;;;;;58.87;37.50;;;8.30;80.20;;;;;;5044199;28;20656;-77
2021/12/09 10:03:15;;;;;;;54.63;36.53;;;8.30;80.20;;;;;;5043610;28;20283;-75
2021/12/09 10:05:45;;;;;;;46.40;31.67;;;8.30;80.20;;;;;;5041781;28;20207;-86
2021/12/09 10:08:14;;;;;;;74.53;35.57;;;8.30;80.10;;;;;;5049157;28;20326;-77
2021/12/09 10:10:42;;;;;;;58.20;33.87;;;8.40;80.20;;;;;;5051141;28;20211;-74
2021/12/09 10:13:14;;;;;;;59.87;34.37;;;8.40;80.10;;;;;;5041678;28;20203;-85
2021/12/09 10:15:47;;;;;;;49.87;29.93;;;8.40;80.00;;;;;;5040386;28;20245;-76
2021/12/09 10:18:32;;;;;;;56.23;30.83;;;8.40;80.00;;;;;;5044009;28;20680;-75
2021/12/09 10:21:00;;;;;;;31.13;26.77;;;8.50;80.00;;;;;;5044588;28;20290;-75
2021/12/09 10:23:32;;;;;;;46.50;30.23;;;8.50;80.00;;;;;;5024059;28;20897;-75
2021/12/09 10:26:19;;;;;;;71.37;31.47;;;8.50;79.80;;;;;;5023130;28;20286;-74
2021/12/09 10:28:52;;;;;;;57.67;29.77;;;8.50;79.60;;;;;;5029505;28;20205;-74
2021/12/09 10:31:24;;;;;;;47.30;31.43;;;8.50;79.50;;;;;;5030652;28;20214;-77
2021/12/09 10:36:55;;;;;;;38.63;28.33;;;8.60;79.50;;;;;;5289597;23;20643;-76
2021/12/09 10:39:42;;;;;;;42.17;28.80;;;8.60;79.50;;;;;;5030842;28;20312;-74
2021/12/09 10:42:13;;;;;;;43.50;27.10;;;8.60;79.50;;;;;;5039593;28;20275;-80
2021/12/09 10:44:51;;;;;;;53.93;28.37;;;8.60;79.50;;;;;;5042411;28;20634;-77
2021/12/09 10:47:23;;;;;;;38.37;29.33;;;8.60;79.50;;;;;;5046349;28;20238;-75
2021/12/09 10:50:04;;;;;;;44.70;24.73;;;8.70;79.60;;;;;;5051258;28;20238;-74
2021/12/09 10:52:40;;;;;;;45.67;27.10;;;8.70;79.60;;;;;;5045012;28;20671;-75
2021/12/09 10:55:10;;;;;;;43.40;27.87;;;8.70;79.60;;;;;;5050183;28;20227;-75
2021/12/09 10:57:37;;;;;;;46.60;25.00;;;8.70;79.70;;;;;;5050773;28;20289;-75
2021/12/09 11:00:18;;;;;;;38.67;26.03;;;8.80;79.50;;;;;;5050730;28;20206;-76
2021/12/09 11:03:11;;;;;;;47.83;27.57;;;8.80;80.20;;;;;;5048991;28;20260;-75
2021/12/09 11:08:31;;;;;;;35.00;24.63;;;8.80;79.50;;;;;;5028449;28;20229;-76
2021/12/09 11:11:10;;;;;;;43.27;24.87;;;8.80;79.70;;;;;;5040448;28;20218;-74
2021/12/09 11:16:22;;;;;;;41.43;30.97;;;8.90;79.80;;;;;;1473108;26;20345;-75
2021/12/09 11:18:49;;;;;;;76.93;28.20;;;8.90;79.80;;;;;;5048653;28;20214;-71
2021/12/09 11:21:19;;;;;;;36.17;23.73;;;8.90;79.90;;;;;;5039960;28;20291;-77
2021/12/09 11:23:54;;;;;;;40.53;23.80;;;8.90;79.80;;;;;;5047110;28;20220;-79
2021/12/09 11:26:35;;;;;;;39.50;25.57;;;8.90;79.80;;;;;;5049390;28;20208;-78
2021/12/09 11:29:08;;;;;;;43.87;26.50;;;8.90;79.80;;;;;;5046694;28;20211;-78
2021/12/09 11:31:40;;;;;;;49.60;25.10;;;8.90;79.80;;;;;;5048265;28;20197;-78
2021/12/09 11:34:12;;;;;;;42.53;25.77;;;8.90;79.80;;;;;;5057477;28;20970;-82
2021/12/09 11:36:49;;;;;;;38.53;23.90;;;8.90;79.80;;;;;;5059610;28;20205;-81
2021/12/09 11:39:27;;;;;;;64.07;28.30;;;8.90;79.70;;;;;;5046572;28;22340;-80
2021/12/09 11:41:54;;;;;;;47.87;29.57;;;9.00;79.70;;;;;;5054673;28;20206;-79
2021/12/09 11:44:21;;;;;;;44.33;27.73;;;9.00;79.60;;;;;;5047587;28;20251;-77
2021/12/09 11:46:49;;;;;;;49.77;26.83;;;9.00;79.40;;;;;;5046785;28;20249;-78
2021/12/09 11:49:16;;;;;;;69.40;28.20;;;9.00;79.40;;;;;;5046353;28;20254;-79
2021/12/09 11:51:44;;;;;;;42.93;24.30;;;9.00;79.20;;;;;;5047409;28;20248;-77
2021/12/09 11:54:12;;;;;;;39.83;24.60;;;9.00;79.10;;;;;;5049487;28;20313;-76
2021/12/09 11:57:00;;;;;;;63.53;27.57;;;9.10;79.20;;;;;;5046115;28;20334;-79
2021/12/09 12:06:37;;;;;;;70.10;26.83;;;9.10;79.10;;;;;;5046557;28;20204;-77
2021/12/09 12:11:39;;;;;;;50.57;26.50;;;9.20;79.00;;;;;;5036610;28;20251;-76
2021/12/09 12:27:38;;;;;;;40.47;24.53;;;9.30;78.50;;;;;;5031011;28;20545;-79
2021/12/09 12:33:03;;;;;;;66.80;26.63;;;9.40;78.70;;;;;;5031428;28;20213;-79
2021/12/09 12:40:49;;;;;;;48.73;22.43;;;9.40;78.50;;;;;;5758968;22;20244;-82
2021/12/09 12:43:26;;;;;;;31.40;24.77;;;9.50;78.50;;;;;;5048522;28;20205;-78
2021/12/09 12:46:05;;;;;;;40.30;23.47;;;9.50;78.50;;;;;;5048512;28;20307;-79
2021/12/09 12:48:45;;;;;;;48.40;21.30;;;9.50;78.30;;;;;;5045527;28;20248;-79
2021/12/09 12:51:17;;;;;;;32.97;20.60;;;9.60;78.00;;;;;;5028469;28;20204;-80
2021/12/09 12:53:47;;;;;;;47.47;22.50;;;9.60;78.00;;;;;;5028343;28;20226;-79
2021/12/09 12:56:18;;;;;;;45.93;24.23;;;9.60;77.90;;;;;;5027896;28;20766;-78
2021/12/09 12:59:22;;;;;;;41.23;21.57;;;9.60;77.80;;;;;;5031003;28;20233;-78
2021/12/09 13:02:20;;;;;;;71.20;26.03;;;9.60;77.80;;;;;;5026662;28;20209;-78
2021/12/09 13:04:59;;;;;;;38.07;22.47;;;9.70;77.90;;;;;;5527432;22;20235;-79
2021/12/09 13:07:37;;;;;;;50.80;28.27;;;9.70;77.90;;;;;;5048005;28;20211;-78
2021/12/09 13:10:28;;;;;;;31.27;19.27;;;9.70;77.90;;;;;;5047733;28;20213;-78
2021/12/09 13:13:13;;;;;;;46.37;21.40;;;9.70;77.50;;;;;;5047824;28;20299;-78
2021/12/09 13:16:02;;;;;;;50.63;26.57;;;9.70;77.60;;;;;;5027955;28;20641;-78
2021/12/09 13:19:03;;;;;;;66.33;24.47;;;9.80;77.80;;;;;;5026436;28;20208;-79
2021/12/09 13:21:48;;;;;;;31.43;19.40;;;9.80;77.50;;;;;;5027606;28;20283;-82
2021/12/09 13:24:41;;;;;;;38.13;23.53;;;9.80;77.30;;;;;;5023469;28;20298;-79
2021/12/09 13:27:50;;;;;;;56.93;27.47;;;9.80;77.00;;;;;;5020787;28;20266;-80
2021/12/09 13:33:47;;;;;;;89.53;28.50;;;9.80;76.80;;;;;;5038540;22;20200;-83
2021/12/09 13:47:09;;;;;;;41.47;22.93;;;9.80;77.20;;;;;;4999895;28;20211;-79
2021/12/09 13:49:47;;;;;;;50.77;23.53;;;9.90;77.00;;;;;;5019141;28;20298;-77
2021/12/09 13:55:08;;;;;;;38.50;21.13;;;9.80;77.00;;;;;;5143539;22;20325;-79